Comby, Texas
Current Conditions -  °F | °C
As of 11:52 PM on Thursday 30 Oct 2014 (Local Time) from KHRL Reporting Station
Clear Clear  
Wind Chill: 70°   Ceiling: Unl
Heat Index: 70°   Visibility: 10mi
Dew Point: 68°   Wind: 3mph
Humidity: 93%   Direction: 180°S
Pressure: 30.07"   Gusts: NA
Location:  26.2542°N, 97.7326°W
Report Text: KHRL 310452Z 18003KT 10SM CLR 21/20 A3007 RMK AO2 SLP180 T02110200
Loading
Personal Weather Stations






























Interactive Weather Map
Tropical Storm Tracking
New forecast layout! Learn more

10-Day Weather Forecast

Advertisements
Track Severe Weather on mobile